Time;durP1;ratioP1;P1;durP2;ratioP2;P2;SDS_P1;SDS_P2;PMS_P1;PMS_P2;Temp;Humidity;BMP_temperature;BMP_pressure;BME280_temperature;BME280_humidity;BME280_pressure;Samples;Min_cycle;Max_cycle;Signal;HPM_P1;HPM_P2
2022/05/24 00:01:16;;;;;;;8.38;4.43;;;;;;;18.86;54.27;99032.88;5017163;28;20068;-72
2022/05/24 00:03:42;;;;;;;6.85;4.13;;;;;;;18.87;54.11;99042.97;5012796;28;20045;-72
2022/05/24 00:06:08;;;;;;;5.65;3.10;;;;;;;18.91;54.07;99044.63;5012660;28;20053;-73
2022/05/24 00:08:33;;;;;;;6.18;3.60;;;;;;;18.91;54.01;99030.44;5011335;28;20443;-73
2022/05/24 00:10:59;;;;;;;4.72;3.35;;;;;;;18.95;53.95;99033.28;5012541;28;20383;-73
2022/05/24 00:13:25;;;;;;;4.47;3.00;;;;;;;19.00;53.77;99029.28;5014031;28;20083;-73
2022/05/24 00:15:51;;;;;;;5.60;3.13;;;;;;;18.78;54.21;99029.22;5010933;28;20030;-73
2022/05/24 00:18:20;;;;;;;7.57;2.97;;;;;;;18.83;54.09;99030.84;5005852;28;20017;-73
2022/05/24 00:20:52;;;;;;;5.05;2.72;;;;;;;18.91;53.64;99032.47;4994284;28;20026;-72
2022/05/24 00:23:20;;;;;;;6.05;3.90;;;;;;;18.89;53.40;99027.22;4998689;28;20083;-73
2022/05/24 00:25:49;;;;;;;6.55;3.35;;;;;;;18.88;53.62;99027.59;5013681;28;20489;-73
2022/05/24 00:28:16;;;;;;;7.68;3.50;;;;;;;18.88;53.44;99022.75;5013614;28;20026;-73
2022/05/24 00:30:44;;;;;;;5.20;3.05;;;;;;;18.87;53.56;99040.97;5012487;28;20169;-73
2022/05/24 00:33:10;;;;;;;7.63;3.33;;;;;;;18.87;53.45;99032.47;5008873;28;20026;-72
2022/05/24 00:35:36;;;;;;;6.47;3.05;;;;;;;18.89;53.35;99027.22;5013299;28;20034;-73
2022/05/24 00:38:02;;;;;;;4.68;3.10;;;;;;;18.97;53.30;99030.06;5007115;28;20461;-73
2022/05/24 00:40:33;;;;;;;13.20;3.10;;;;;;;18.93;53.34;99028.00;4995484;28;20354;-73
2022/05/24 00:43:04;;;;;;;6.00;3.05;;;;;;;18.74;53.76;99022.75;5013565;28;20064;-73
2022/05/24 00:45:35;;;;;;;3.33;2.65;;;;;;;18.74;53.72;99028.41;5011837;28;20026;-72
2022/05/24 00:48:24;;;;;;;7.13;2.95;;;;;;;18.69;53.72;99031.63;5013299;28;20040;-72
2022/05/24 00:50:51;;;;;;;6.35;3.28;;;;;;;18.79;53.51;99019.50;5012021;28;20034;-72
2022/05/24 00:53:37;;;;;;;5.97;3.88;;;;;;;18.78;53.59;99021.53;5007675;28;20080;-72
2022/05/24 00:56:17;;;;;;;5.82;3.08;;;;;;;18.93;53.05;99019.50;5000834;28;20097;-72
2022/05/24 00:58:52;;;;;;;5.32;3.20;;;;;;;18.87;53.15;99018.31;5012206;28;20036;-73
2022/05/24 01:01:39;;;;;;;5.47;3.10;;;;;;;18.86;53.34;99007.38;5011784;28;20044;-72
2022/05/24 01:04:08;;;;;;;5.03;3.00;;;;;;;18.89;53.00;99010.22;5013178;28;20488;-73
2022/05/24 01:06:34;;;;;;;4.60;3.20;;;;;;;18.90;53.09;99016.69;5024612;28;20049;-73
2022/05/24 01:09:04;;;;;;;5.60;3.42;;;;;;;18.91;53.20;99018.31;5028671;28;20112;-72
2022/05/24 01:11:32;;;;;;;4.87;2.70;;;;;;;18.84;53.11;99013.44;5013472;28;20033;-73
2022/05/24 01:14:00;;;;;;;5.75;3.25;;;;;;;18.73;53.81;99016.25;5031679;28;20400;-73
2022/05/24 01:16:25;;;;;;;9.68;2.92;;;;;;;18.77;53.50;99008.59;5032533;28;20033;-73
2022/05/24 01:18:51;;;;;;;5.75;3.80;;;;;;;18.71;53.89;99006.56;5044984;28;20498;-73
2022/05/24 01:21:17;;;;;;;5.75;3.40;;;;;;;18.82;53.40;99013.03;5052458;28;20021;-72
2022/05/24 01:23:43;;;;;;;11.48;3.80;;;;;;;18.82;53.62;99018.69;5018569;28;20037;-72
2022/05/24 01:26:14;;;;;;;4.10;3.63;;;;;;;18.80;53.56;99019.09;5032250;28;20029;-72
2022/05/24 01:28:45;;;;;;;8.75;3.15;;;;;;;18.85;53.24;99017.09;5032118;28;20033;-73
2022/05/24 01:31:11;;;;;;;3.88;3.17;;;;;;;18.66;54.24;99019.88;5032495;28;20041;-73
2022/05/24 01:36:25;;;;;;;9.57;3.90;;;;;;;18.65;53.82;99015.44;5032452;28;20505;-72
2022/05/24 01:38:53;;;;;;;4.17;3.20;;;;;;;18.34;54.97;99026.28;5025466;28;20026;-73
2022/05/24 01:41:25;;;;;;;10.52;3.20;;;;;;;18.07;55.92;99025.75;5032017;28;20025;-73
2022/05/24 01:43:53;;;;;;;6.15;3.65;;;;;;;18.37;55.10;99021.81;5032041;28;20104;-73
2022/05/24 01:46:23;;;;;;;7.68;3.80;;;;;;;18.44;54.63;99026.69;5031990;28;20415;-72
2022/05/24 01:48:51;;;;;;;;;;;;;;;18.43;54.71;99022.25;5032348;28;20025;-72
2022/05/24 01:51:22;;;;;;;12.98;4.25;;;;;;;18.38;54.94;99026.28;5031603;28;20004;-73
2022/05/24 01:53:53;;;;;;;11.40;4.47;;;;;;;18.18;55.47;99020.97;5031182;28;20033;-72
2022/05/24 01:56:25;;;;;;;19.35;4.18;;;;;;;18.28;55.29;99029.88;5014100;28;20025;-72
2022/05/24 01:58:56;;;;;;;6.65;3.25;;;;;;;18.39;55.00;99030.72;5013805;28;20075;-73
2022/05/24 02:01:43;;;;;;;9.48;4.00;;;;;;;18.35;54.79;99027.91;5031976;28;20500;-73
2022/05/24 02:04:08;;;;;;;6.13;3.60;;;;;;;18.33;54.99;99027.47;5031782;28;20041;-73
2022/05/24 02:06:34;;;;;;;8.32;4.10;;;;;;;18.47;54.48;99028.75;5030327;28;20045;-72
2022/05/24 02:09:00;;;;;;;21.08;4.18;;;;;;;18.44;54.53;99030.34;5013970;28;20071;-73
2022/05/24 02:11:28;;;;;;;5.50;3.72;;;;;;;18.49;54.44;99034.81;5013955;28;20043;-72
2022/05/24 02:14:24;;;;;;;7.78;3.78;;;;;;;18.56;54.09;99034.03;5031500;28;20029;-72
2022/05/24 02:17:00;;;;;;;8.40;3.65;;;;;;;18.61;54.08;99036.47;5028144;28;20041;-72
2022/05/24 02:19:28;;;;;;;8.55;4.20;;;;;;;18.52;54.24;99031.19;5022458;28;20021;-73
2022/05/24 02:21:58;;;;;;;4.50;3.38;;;;;;;18.50;54.16;99020.25;5022119;28;20165;-73
2022/05/24 02:24:25;;;;;;;7.70;4.13;;;;;;;18.60;54.06;99023.50;5011701;28;20112;-73
2022/05/24 02:26:52;;;;;;;13.00;4.60;;;;;;;18.50;54.64;99023.06;5020119;28;20040;-73
2022/05/24 02:29:21;;;;;;;9.63;4.43;;;;;;;18.16;55.83;99034.69;5031004;28;20033;-72
2022/05/24 02:31:47;;;;;;;10.27;4.45;;;;;;;17.49;57.84;99036.69;5030916;28;20507;-72
2022/05/24 02:34:13;;;;;;;11.98;4.55;;;;;;;17.94;56.72;99039.41;5031509;28;20087;-72
2022/05/24 02:36:38;;;;;;;17.13;4.80;;;;;;;17.95;56.76;99038.19;5012755;28;20029;-72
2022/05/24 02:39:04;;;;;;;12.95;4.85;;;;;;;17.41;58.65;99049.97;5031178;28;20079;-72
2022/05/24 02:41:31;;;;;;;10.73;4.43;;;;;;;17.75;57.62;99041.31;5031155;28;20025;-73
2022/05/24 02:44:09;;;;;;;13.93;5.15;;;;;;;17.91;57.00;99049.47;5030976;28;20494;-73
2022/05/24 02:46:36;;;;;;;5.30;4.28;;;;;;;17.97;56.76;99049.91;5031399;28;20021;-73
2022/05/24 02:49:03;;;;;;;13.63;4.55;;;;;;;17.86;56.92;99055.53;5025716;28;20022;-73
2022/05/24 02:51:29;;;;;;;10.20;5.10;;;;;;;17.73;57.46;99051.41;5005356;28;20045;-73
2022/05/24 02:53:55;;;;;;;7.80;3.55;;;;;;;17.48;58.05;99047.19;5031106;28;20064;-73
2022/05/24 02:56:21;;;;;;;5.82;4.20;;;;;;;17.60;57.74;99054.56;5031234;28;20025;-73
2022/05/24 02:58:47;;;;;;;4.57;4.00;;;;;;;17.49;58.19;99062.13;5030914;28;20026;-73
2022/05/24 03:01:20;;;;;;;13.73;4.95;;;;;;;17.20;59.46;99068.38;5013331;28;20040;-73
2022/05/24 03:03:48;;;;;;;6.45;4.40;;;;;;;17.20;59.44;99067.56;5031296;28;20431;-73
2022/05/24 03:06:14;;;;;;;5.70;3.92;;;;;;;17.08;59.75;99054.53;5029853;28;20049;-72
2022/05/24 03:11:24;;;;;;;10.82;4.05;;;;;;;17.00;60.27;99064.13;5031123;28;20460;-72
2022/05/24 03:16:34;;;;;;;6.25;4.03;;;;;;;16.74;61.08;99074.34;5030862;28;20076;-72
2022/05/24 03:18:59;;;;;;;8.82;4.57;;;;;;;16.97;60.55;99074.19;5029084;28;20025;-72
2022/05/24 03:21:25;;;;;;;6.93;4.47;;;;;;;17.08;60.50;99077.13;5009190;28;20034;-72
2022/05/24 03:23:50;;;;;;;6.82;3.80;;;;;;;17.19;59.90;99075.22;5023292;28;20029;-72
2022/05/24 03:26:16;;;;;;;13.40;4.90;;;;;;;17.02;60.65;99067.41;5030662;28;20048;-72
2022/05/24 03:28:43;;;;;;;14.20;5.18;;;;;;;16.81;61.40;99077.25;5029364;28;20030;-72
2022/05/24 03:31:09;;;;;;;17.27;5.18;;;;;;;16.64;62.18;99073.81;5030995;28;20044;-72
2022/05/24 03:33:35;;;;;;;8.52;4.03;;;;;;;16.61;62.12;99071.78;5030982;28;20057;-72
2022/05/24 03:36:02;;;;;;;12.20;4.65;;;;;;;16.64;62.47;99064.56;5027683;28;20025;-73
2022/05/24 03:38:28;;;;;;;19.65;5.18;;;;;;;16.63;62.51;99060.91;5025396;28;20483;-72
2022/05/24 03:40:55;;;;;;;11.15;5.50;;;;;;;16.56;62.79;99060.84;5029749;28;20053;-73
2022/05/24 03:43:20;;;;;;;10.60;4.43;;;;;;;16.69;62.68;99079.13;5030165;28;20021;-73
2022/05/24 03:45:47;;;;;;;7.30;4.50;;;;;;;16.78;62.58;99073.19;5034252;28;20021;-72
2022/05/24 03:48:13;;;;;;;13.75;5.13;;;;;;;16.65;63.01;99074.66;5016002;28;20024;-73
2022/05/24 03:50:39;;;;;;;5.65;5.10;;;;;;;16.55;63.57;99084.63;5033568;28;20423;-73
2022/05/24 03:53:04;;;;;;;6.00;4.57;;;;;;;16.45;63.91;99069.16;5012594;28;20032;-73
2022/05/24 03:55:30;;;;;;;8.45;4.82;;;;;;;16.60;64.10;99067.34;5014496;28;20113;-73
2022/05/24 03:58:02;;;;;;;10.10;4.97;;;;;;;16.52;64.41;99082.56;5020968;28;20480;-73
2022/05/24 04:00:34;;;;;;;11.95;5.38;;;;;;;16.69;64.03;99081.13;5033967;28;20468;-74
2022/05/24 04:03:00;;;;;;;6.65;5.10;;;;;;;16.61;63.99;99066.13;5016324;28;20492;-74
2022/05/24 04:05:27;;;;;;;16.70;6.07;;;;;;;16.84;63.89;99096.22;5033771;28;20048;-73
2022/05/24 04:07:52;;;;;;;8.02;5.20;;;;;;;16.90;63.55;99094.69;5013316;28;20030;-73
2022/05/24 04:10:19;;;;;;;8.73;5.25;;;;;;;16.90;63.26;99100.34;5016303;28;20033;-73
2022/05/24 04:12:45;;;;;;;10.57;5.93;;;;;;;16.87;63.82;99098.28;5021493;28;20018;-74
2022/05/24 04:15:11;;;;;;;10.60;5.78;;;;;;;16.77;64.33;99093.31;5015951;28;20112;-74
2022/05/24 04:17:37;;;;;;;11.13;5.47;;;;;;;16.76;64.04;99088.88;5015664;28;20392;-74
2022/05/24 04:20:04;;;;;;;7.32;5.07;;;;;;;16.95;63.75;99090.69;5033355;28;20037;-75
2022/05/24 04:22:30;;;;;;;8.27;5.00;;;;;;;16.98;64.27;99085.06;5031839;28;20018;-75
2022/05/24 04:24:55;;;;;;;12.35;6.43;;;;;;;16.76;64.81;99078.41;5004535;28;20527;-74
2022/05/24 04:27:21;;;;;;;7.90;5.53;;;;;;;16.91;63.93;99096.31;5026125;28;20044;-74
2022/05/24 04:29:46;;;;;;;7.00;5.85;;;;;;;17.11;63.04;99107.44;5032655;28;20033;-74
2022/05/24 04:32:12;;;;;;;12.75;6.20;;;;;;;17.12;63.18;99103.41;5030388;28;20536;-74
2022/05/24 04:34:38;;;;;;;12.02;6.63;;;;;;;17.10;62.43;99095.34;5033141;28;20032;-74
2022/05/24 04:37:07;;;;;;;7.93;6.63;;;;;;;17.19;62.70;99092.19;5033462;28;20025;-74
2022/05/24 04:39:33;;;;;;;17.23;6.43;;;;;;;17.44;61.89;99096.44;5032574;28;20092;-73
2022/05/24 04:44:42;;;;;;;27.10;6.85;;;;;;;17.55;60.29;99086.00;5013016;28;20072;-74
2022/05/24 04:47:08;;;;;;;12.75;5.68;;;;;;;17.51;61.08;99091.66;5012991;28;20045;-74
2022/05/24 04:49:39;;;;;;;9.60;6.00;;;;;;;17.50;61.03;99090.03;5027624;28;20101;-74
2022/05/24 04:52:06;;;;;;;12.27;6.07;;;;;;;17.58;60.32;99101.38;5032881;28;20591;-74
2022/05/24 04:54:32;;;;;;;14.02;5.85;;;;;;;17.59;60.95;99103.00;5014956;28;20438;-75
2022/05/24 04:56:57;;;;;;;8.50;5.63;;;;;;;17.56;60.56;99115.09;5030618;28;20036;-74
2022/05/24 04:59:23;;;;;;;11.20;5.72;;;;;;;17.62;60.06;99103.03;5030976;28;20030;-74
2022/05/24 05:01:52;;;;;;;11.80;5.97;;;;;;;17.76;59.76;99113.66;5027558;28;20029;-74
2022/05/24 05:04:19;;;;;;;9.95;5.75;;;;;;;17.70;59.77;99111.59;5029517;28;20508;-74
2022/05/24 05:06:46;;;;;;;12.68;6.78;;;;;;;17.72;60.13;99124.09;5026750;28;20049;-74
2022/05/24 05:09:12;;;;;;;14.07;5.78;;;;;;;17.62;59.89;99117.19;5022494;28;20052;-73
2022/05/24 05:11:39;;;;;;;15.52;5.38;;;;;;;17.80;59.53;99125.00;5031697;28;20112;-74
2022/05/24 05:14:05;;;;;;;12.13;5.47;;;;;;;17.79;59.46;99118.50;5032814;28;20025;-74
2022/05/24 05:16:31;;;;;;;16.90;5.90;;;;;;;17.91;58.69;99106.06;5018978;28;20029;-74
2022/05/24 05:18:56;;;;;;;10.77;5.15;;;;;;;17.95;58.08;99097.59;5029095;28;20038;-74
2022/05/24 05:21:22;;;;;;;10.30;4.35;;;;;;;18.00;58.67;99097.25;5032051;28;20033;-74
2022/05/24 05:23:47;;;;;;;12.10;4.55;;;;;;;18.13;57.52;99086.41;5031958;28;20060;-74
2022/05/24 05:26:16;;;;;;;10.48;3.92;;;;;;;17.99;57.93;99089.13;5030508;28;20035;-74
2022/05/24 05:28:42;;;;;;;10.55;5.00;;;;;;;18.08;57.80;99107.41;5012141;28;20381;-74
2022/05/24 05:31:17;;;;;;;13.75;5.93;;;;;;;18.15;57.89;99100.19;4994888;28;20026;-73
2022/05/24 05:33:44;;;;;;;14.00;5.55;;;;;;;18.27;57.75;99097.00;5012498;28;20030;-74
2022/05/24 05:36:11;;;;;;;8.05;4.78;;;;;;;18.19;57.43;99106.66;5026704;28;20025;-74
2022/05/24 05:38:37;;;;;;;14.40;5.55;;;;;;;18.29;57.15;99113.59;5026416;28;20017;-74
2022/05/24 05:41:04;;;;;;;13.63;6.30;;;;;;;18.46;56.96;99107.22;5013004;28;20029;-74
2022/05/24 05:43:30;;;;;;;7.70;4.22;;;;;;;18.64;55.19;99112.94;5014464;28;20108;-74
2022/05/24 05:45:59;;;;;;;5.55;4.55;;;;;;;18.46;56.04;99107.22;5031994;28;20484;-74
2022/05/24 05:48:26;;;;;;;10.90;4.90;;;;;;;18.60;55.84;99112.13;5017507;28;20037;-74
2022/05/24 05:50:52;;;;;;;6.10;4.07;;;;;;;18.72;55.41;99110.16;5014153;28;20502;-74
2022/05/24 05:53:19;;;;;;;19.02;5.22;;;;;;;18.84;55.38;99109.78;5031844;28;20479;-75
2022/05/24 05:55:45;;;;;;;14.50;4.65;;;;;;;19.04;55.15;99115.09;5030245;28;20026;-74
2022/05/24 05:58:11;;;;;;;23.17;5.80;;;;;;;18.97;55.39;99109.41;5031504;28;20559;-76
2022/05/24 06:00:38;;;;;;;11.32;4.45;;;;;;;18.93;55.30;99115.84;4994566;28;20084;-75
2022/05/24 06:03:04;;;;;;;11.15;5.05;;;;;;;18.96;55.34;99114.25;5023667;28;20026;-74
2022/05/24 06:05:30;;;;;;;13.20;5.55;;;;;;;18.86;54.68;99118.69;5030645;28;20053;-75
2022/05/24 06:07:57;;;;;;;6.85;4.63;;;;;;;18.83;55.25;99122.31;5029734;28;20037;-73
2022/05/24 06:10:23;;;;;;;9.27;4.47;;;;;;;19.06;54.95;99130.50;4999923;28;20056;-72
2022/05/24 06:12:49;;;;;;;8.02;4.47;;;;;;;19.34;54.93;99140.25;5025537;28;20041;-76
2022/05/24 06:15:14;;;;;;;9.85;5.18;;;;;;;19.43;53.80;99125.72;5021747;28;20032;-75
2022/05/24 06:17:48;;;;;;;6.80;4.38;;;;;;;19.41;53.87;99124.47;5016560;28;20034;-75
2022/05/24 06:20:14;;;;;;;7.60;3.88;;;;;;;19.37;53.21;99124.47;5013576;28;20034;-73
2022/05/24 06:22:40;;;;;;;15.95;4.30;;;;;;;19.26;52.57;99126.47;5010101;28;20420;-75
2022/05/24 06:25:06;;;;;;;11.60;4.75;;;;;;;19.36;52.78;99132.16;5013343;28;20041;-74
2022/05/24 06:27:31;;;;;;;18.52;4.15;;;;;;;19.36;52.69;99134.19;5015796;28;20429;-74
2022/05/24 06:29:57;;;;;;;9.93;3.90;;;;;;;19.43;52.56;99122.88;5015287;28;20033;-72
2022/05/24 06:32:22;;;;;;;10.57;4.80;;;;;;;19.49;53.03;99126.91;5007329;28;20400;-75
2022/05/24 06:34:49;;;;;;;15.02;5.47;;;;;;;19.59;52.13;99124.50;5031344;28;20036;-75
2022/05/24 06:37:18;;;;;;;15.63;4.70;;;;;;;19.57;52.58;99130.56;5026234;28;20041;-75
2022/05/24 06:39:45;;;;;;;11.10;4.68;;;;;;;19.49;52.39;99140.28;5028127;28;20022;-72
2022/05/24 06:42:10;;;;;;;8.60;3.90;;;;;;;19.57;52.23;99136.22;5026384;28;20037;-75
2022/05/24 06:44:36;;;;;;;10.73;4.45;;;;;;;19.71;52.02;99143.13;5013871;28;20041;-76
2022/05/24 06:47:01;;;;;;;8.52;4.82;;;;;;;19.40;52.74;99137.03;5031316;28;20468;-76
2022/05/24 06:49:27;;;;;;;9.30;4.85;;;;;;;19.71;53.11;99129.75;5013267;28;20076;-75
2022/05/24 06:51:52;;;;;;;11.02;3.72;;;;;;;20.00;51.41;99138.25;5022876;28;21504;-73
2022/05/24 06:54:18;;;;;;;11.10;4.32;;;;;;;20.09;50.81;99129.34;5021990;28;20033;-75
2022/05/24 06:56:43;;;;;;;6.47;4.10;;;;;;;20.12;50.15;99137.03;5028578;28;20036;-74
2022/05/24 07:04:38;;;;;;;6.95;3.83;;;;;;;20.23;49.95;99113.50;5041734;28;20036;-75
2022/05/24 07:07:05;;;;;;;10.35;3.88;;;;;;;20.50;49.41;99118.69;5048302;28;20064;-78
2022/05/24 07:09:31;;;;;;;8.55;4.32;;;;;;;20.38;49.45;99128.44;5047483;28;20479;-75
2022/05/24 07:11:58;;;;;;;8.55;4.53;;;;;;;20.21;49.33;99133.78;5023854;28;20479;-75
2022/05/24 07:14:24;;;;;;;10.20;3.78;;;;;;;20.50;49.36;99139.34;5027722;28;20492;-78
2022/05/24 07:16:49;;;;;;;6.75;4.70;;;;;;;20.60;48.45;99127.13;5027625;28;20057;-76
2022/05/24 07:19:15;;;;;;;16.95;5.35;;;;;;;20.40;49.43;99111.81;5022105;28;20472;-78
2022/05/24 07:21:40;;;;;;;7.50;4.32;;;;;;;20.50;49.67;99113.78;5044228;28;20022;-76
2022/05/24 07:24:06;;;;;;;12.18;4.68;;;;;;;20.96;48.83;99125.38;5021718;28;20397;-78
2022/05/24 07:26:32;;;;;;;9.38;5.03;;;;;;;20.86;48.83;99125.03;5031043;28;20120;-74
2022/05/24 07:28:57;;;;;;;6.15;4.03;;;;;;;20.75;48.58;99119.38;5037919;28;20071;-75
2022/05/24 07:31:23;;;;;;;24.95;12.45;;;;;;;20.73;49.42;99109.63;5026663;28;20052;-77
2022/05/24 07:33:48;;;;;;;9.88;4.13;;;;;;;20.86;47.69;99113.66;5032345;28;20029;-73
2022/05/24 07:36:14;;;;;;;13.85;5.28;;;;;;;20.77;48.02;99113.28;5033394;28;20106;-76
2022/05/24 07:38:39;;;;;;;8.75;4.55;;;;;;;21.04;47.59;99115.59;5036768;28;20045;-76
2022/05/24 07:46:33;;;;;;;11.25;4.50;;;;;;;20.18;49.95;99121.19;5036610;28;20171;-72
2022/05/24 07:48:59;;;;;;;10.45;4.13;;;;;;;20.62;48.91;99116.16;5016459;28;20033;-75
2022/05/24 07:51:25;;;;;;;16.48;5.05;;;;;;;21.15;48.60;99112.69;5028521;28;20060;-72
2022/05/24 07:53:50;;;;;;;11.57;4.57;;;;;;;21.36;47.63;99114.59;5025091;28;20079;-75
2022/05/24 07:56:18;;;;;;;25.90;5.63;;;;;;;21.50;46.89;99119.34;5032799;28;20057;-79
2022/05/24 07:58:44;;;;;;;22.63;4.60;;;;;;;21.79;47.24;99116.28;5018859;28;20033;-76
2022/05/24 08:01:10;;;;;;;9.70;4.53;;;;;;;22.00;46.09;99118.13;5040843;28;20060;-76
2022/05/24 08:03:38;;;;;;;11.70;4.32;;;;;;;21.85;45.88;99116.66;5028550;28;20041;-73
2022/05/24 08:06:04;;;;;;;11.35;5.43;;;;;;;22.04;45.72;99120.94;5016109;28;20042;-76
2022/05/24 08:08:30;;;;;;;5.85;4.95;;;;;;;21.88;45.84;99116.59;5021946;28;20044;-76
2022/05/24 08:10:56;;;;;;;10.63;4.32;;;;;;;22.21;45.74;99106.91;5049264;28;20021;-82
2022/05/24 08:13:22;;;;;;;7.93;4.18;;;;;;;21.98;45.59;99096.97;5007054;28;20068;-77
2022/05/24 08:15:53;;;;;;;7.78;4.07;;;;;;;21.76;45.62;99074.41;5036620;28;20096;-75
2022/05/24 08:18:19;;;;;;;;;;;;;;;21.80;46.47;99068.69;5028676;28;20033;-77
2022/05/24 08:20:45;;;;;;;9.63;4.40;;;;;;;21.56;46.90;99059.94;5049275;28;19915;-76
2022/05/24 08:23:11;;;;;;;11.30;4.93;;;;;;;21.51;47.98;99071.78;5039418;28;20025;-75
2022/05/24 08:25:37;;;;;;;10.27;4.78;;;;;;;21.91;47.54;99075.09;5048059;28;20034;-72
2022/05/24 08:28:02;;;;;;;9.43;4.65;;;;;;;22.11;47.32;99080.19;5032718;28;20052;-76
2022/05/24 08:30:31;;;;;;;7.82;4.93;;;;;;;22.38;46.45;99076.59;5008112;28;20035;-74
2022/05/24 09:03:12;;;;;;;13.65;7.07;;;;;;;22.52;45.44;99062.22;5065893;28;20630;-71
2022/05/24 09:05:44;;;;;;;18.77;5.18;;;;;;;22.62;45.69;99065.34;5047786;28;20551;-72
2022/05/24 09:08:27;;;;;;;9.82;5.18;;;;;;;22.74;45.02;99063.94;5043457;28;20040;-73
2022/05/24 09:11:11;;;;;;;9.23;5.03;;;;;;;22.89;44.83;99071.09;5068805;28;20017;-72
2022/05/24 09:13:39;;;;;;;16.52;5.90;;;;;;;23.24;45.45;99068.09;5056707;28;20037;-74
2022/05/24 09:16:11;;;;;;;11.90;6.03;;;;;;;23.38;43.33;99076.47;5053159;28;20443;-75
2022/05/24 09:19:26;;;;;;;18.02;6.38;;;;;;;23.74;43.80;99075.06;5057786;28;20528;-70
2022/05/24 09:21:53;;;;;;;9.88;6.53;;;;;;;23.86;43.26;99073.59;5049192;28;20093;-71
2022/05/24 09:24:24;;;;;;;10.23;5.88;;;;;;;23.49;44.01;99064.88;5063623;28;20029;-73
2022/05/24 09:27:04;;;;;;;10.90;6.32;;;;;;;23.21;44.29;99068.97;5046521;28;20052;-74
2022/05/24 09:29:31;;;;;;;9.65;6.00;;;;;;;23.38;44.92;99053.63;5057854;28;20103;-74
2022/05/24 09:31:59;;;;;;;12.45;5.50;;;;;;;23.81;43.98;99057.00;5048014;28;20516;-72
2022/05/24 09:34:29;;;;;;;8.90;5.70;;;;;;;23.84;44.29;99045.50;5052211;28;20456;-72
2022/05/24 09:36:58;;;;;;;10.00;5.50;;;;;;;23.84;43.46;99044.69;5042555;28;20037;-74
2022/05/24 09:39:40;;;;;;;11.05;5.72;;;;;;;23.44;43.27;99053.94;5043835;28;20384;-73
2022/05/24 09:42:13;;;;;;;14.68;6.45;;;;;;;23.64;44.03;99038.94;5049453;28;20479;-69
2022/05/24 09:44:43;;;;;;;12.68;5.65;;;;;;;23.70;43.44;99046.56;5042982;28;20026;-71
2022/05/24 09:47:50;;;;;;;13.18;6.80;;;;;;;23.89;43.50;99055.63;5049813;28;20033;-70
2022/05/24 09:50:24;;;;;;;8.77;5.57;;;;;;;24.07;43.11;99045.91;5021426;28;20112;-73
2022/05/24 09:53:14;;;;;;;9.18;6.30;;;;;;;24.37;42.04;99044.06;5021712;28;20116;-76
2022/05/24 09:55:47;;;;;;;14.15;6.38;;;;;;;23.96;41.98;99034.69;5028693;28;20468;-74
2022/05/24 09:58:28;;;;;;;12.02;6.60;;;;;;;24.11;43.06;99041.75;5021247;28;20092;-72
2022/05/24 10:01:07;;;;;;;12.20;6.47;;;;;;;24.35;42.73;99038.00;5015827;28;20084;-69
2022/05/24 10:03:41;;;;;;;8.80;6.40;;;;;;;24.35;41.61;99029.44;5023957;28;20021;-71
2022/05/24 10:06:25;;;;;;;13.13;7.10;;;;;;;24.23;41.98;99023.13;5018888;28;20509;-71
2022/05/24 10:08:53;;;;;;;10.15;6.53;;;;;;;24.21;42.23;99027.69;5024729;28;20102;-72
2022/05/24 10:11:18;;;;;;;12.50;6.28;;;;;;;24.86;41.61;99026.31;5035029;28;20041;-71
2022/05/24 10:14:09;;;;;;;8.20;6.15;;;;;;;24.64;41.17;99032.47;5022882;28;20548;-70
2022/05/24 10:16:47;;;;;;;13.25;6.28;;;;;;;24.89;41.80;99038.91;5015052;28;20052;-74
2022/05/24 10:19:33;;;;;;;14.43;6.70;;;;;;;24.52;41.16;99030.28;5020993;28;20037;-67
2022/05/24 10:22:23;;;;;;;11.18;6.05;;;;;;;23.78;44.26;99035.03;5023304;28;20082;-70
2022/05/24 10:25:08;;;;;;;;;;;;;;;24.31;42.64;99031.56;5013034;28;20033;-72
2022/05/24 10:28:14;;;;;;;18.02;6.72;;;;;;;24.44;42.21;99026.78;5015157;28;19914;-72
2022/05/24 10:31:10;;;;;;;11.70;6.65;;;;;;;24.57;41.82;99017.53;5005508;28;20428;-70
2022/05/24 10:40:22;;;;;;;8.43;5.40;;;;;;;24.84;41.75;99002.25;5009821;28;20037;-72
2022/05/24 10:43:09;;;;;;;11.50;5.60;;;;;;;25.14;40.94;98998.25;5006177;28;20051;-73
2022/05/24 10:45:50;;;;;;;9.70;5.47;;;;;;;25.38;41.12;99006.63;5011341;28;20492;-72
2022/05/24 10:48:31;;;;;;;15.57;6.28;;;;;;;25.52;39.70;99002.63;5002777;28;20067;-74
2022/05/24 10:51:17;;;;;;;22.45;7.75;;;;;;;25.47;39.12;99000.31;5012618;28;20038;-73
2022/05/24 10:53:45;;;;;;;9.23;5.65;;;;;;;25.57;39.63;98993.50;5031709;28;20484;-74
2022/05/24 10:56:32;;;;;;;9.85;5.65;;;;;;;25.77;39.02;98976.19;5013757;28;20049;-71
2022/05/24 10:59:13;;;;;;;7.93;5.50;;;;;;;25.81;38.67;98990.41;5022298;28;20484;-70
2022/05/24 11:01:46;;;;;;;8.40;5.20;;;;;;;25.79;38.12;98985.13;5022931;28;20123;-71
2022/05/24 11:04:23;;;;;;;9.02;5.53;;;;;;;25.89;39.50;98988.94;5009749;28;20030;-72
2022/05/24 11:07:06;;;;;;;11.88;5.80;;;;;;;26.12;38.73;98984.22;5029237;28;20415;-75
2022/05/24 11:09:34;;;;;;;8.15;5.30;;;;;;;25.74;38.24;98985.69;5007438;28;20125;-76
2022/05/24 11:12:05;;;;;;;17.65;6.20;;;;;;;25.86;38.35;98974.72;5018355;28;20101;-73
2022/05/24 11:14:36;;;;;;;9.75;5.13;;;;;;;26.21;38.71;98961.47;5018878;28;20031;-72
2022/05/24 11:17:02;;;;;;;17.95;5.50;;;;;;;26.28;38.11;98953.91;5009816;28;20028;-72
2022/05/24 11:19:39;;;;;;;8.32;4.75;;;;;;;26.21;37.74;98957.78;5007859;28;20407;-73
2022/05/24 11:22:23;;;;;;;6.82;4.78;;;;;;;26.43;38.28;98949.34;5031415;28;20065;-74
2022/05/24 11:24:58;;;;;;;11.32;4.72;;;;;;;26.40;37.58;98938.78;5020802;28;20033;-74
2022/05/24 11:27:30;;;;;;;9.20;5.18;;;;;;;26.53;36.94;98935.13;5008773;28;20037;-71
2022/05/24 11:30:31;;;;;;;9.88;4.97;;;;;;;26.87;37.45;98930.78;5007985;28;20116;-73
2022/05/24 11:33:02;;;;;;;7.28;4.43;;;;;;;26.43;36.60;98926.41;5012594;28;20026;-74
2022/05/24 11:35:35;;;;;;;9.07;5.47;;;;;;;26.13;36.94;98919.91;5018123;28;20033;-70
2022/05/24 11:38:23;;;;;;;7.00;4.90;;;;;;;26.39;37.96;98930.66;5015669;28;20033;-72
2022/05/24 11:40:54;;;;;;;8.45;5.30;;;;;;;26.65;37.03;98919.97;5012704;28;20123;-73
2022/05/24 11:43:35;;;;;;;9.18;4.55;;;;;;;26.80;36.64;98928.91;5015454;28;20058;-74
2022/05/24 11:46:37;;;;;;;12.75;5.28;;;;;;;26.78;36.59;98937.97;5005624;28;20037;-74
2022/05/24 11:49:12;;;;;;;30.80;7.07;;;;;;;26.54;36.64;98922.38;5002910;28;20055;-71
2022/05/24 11:51:46;;;;;;;9.93;4.65;;;;;;;26.32;37.26;98923.88;5021649;28;20597;-73
2022/05/24 11:54:18;;;;;;;11.98;4.65;;;;;;;26.17;37.35;98931.28;5031437;28;20052;-70
2022/05/24 11:56:52;;;;;;;10.63;4.82;;;;;;;26.54;37.32;98949.00;5013197;28;20029;-72
2022/05/24 11:59:40;;;;;;;14.13;5.80;;;;;;;27.05;37.01;98942.47;5006776;28;20037;-74
2022/05/24 12:02:25;;;;;;;11.50;5.82;;;;;;;27.03;35.82;98942.13;5006219;28;20519;-72
2022/05/24 12:07:56;;;;;;;12.80;4.75;;;;;;;26.86;37.06;98950.03;4997165;28;20084;-72
2022/05/24 12:10:21;;;;;;;11.38;4.72;;;;;;;27.06;37.01;98954.72;4997628;28;20049;-71
2022/05/24 12:12:56;;;;;;;6.30;4.38;;;;;;;27.04;37.02;98960.94;5000707;28;20018;-71
2022/05/24 12:15:31;;;;;;;9.93;4.22;;;;;;;27.30;36.91;98966.63;5003120;28;20032;-73
2022/05/24 12:18:00;;;;;;;13.80;4.75;;;;;;;27.44;35.47;98953.03;5010568;28;20491;-71
2022/05/24 12:20:34;;;;;;;10.35;4.65;;;;;;;27.27;35.92;98952.41;4995354;28;20037;-76
2022/05/24 12:23:06;;;;;;;7.72;3.95;;;;;;;27.30;35.72;98954.34;5022540;28;20021;-73
2022/05/24 12:25:53;;;;;;;10.85;4.38;;;;;;;27.49;35.94;98946.69;5022134;28;20029;-75
2022/05/24 12:28:26;;;;;;;8.90;4.50;;;;;;;27.62;35.60;98946.69;5009402;28;20025;-73
2022/05/24 12:30:52;;;;;;;12.07;4.90;;;;;;;27.57;34.86;98947.28;5015483;28;20036;-73
2022/05/24 12:33:21;;;;;;;14.57;4.97;;;;;;;27.26;34.67;98950.78;5010094;28;20495;-75
2022/05/24 12:35:57;;;;;;;8.35;4.40;;;;;;;27.23;35.38;98946.78;5000600;28;20550;-72
2022/05/24 12:38:27;;;;;;;16.92;4.05;;;;;;;27.15;35.72;98951.97;4998064;28;20121;-73
2022/05/24 12:41:17;;;;;;;10.70;4.25;;;;;;;27.17;34.86;98942.91;4991339;28;20029;-74
2022/05/24 12:43:56;;;;;;;16.65;4.13;;;;;;;27.18;35.84;98944.50;4993524;28;20033;-75
2022/05/24 12:46:26;;;;;;;11.00;4.60;;;;;;;27.03;35.72;98939.25;5015602;28;20044;-73